createdAt,value
2022-11-26T15:41:45.332Z,21.77
2022-11-26T15:44:39.030Z,20.20
2022-11-26T15:47:18.814Z,12.13
2022-11-26T15:49:52.194Z,15.80
2022-11-26T15:52:26.472Z,10.50
2022-11-26T15:55:18.908Z,17.10
2022-11-26T15:57:51.890Z,18.80
2022-11-26T16:00:22.923Z,17.08
2022-11-26T16:02:52.225Z,15.77
2022-11-26T16:05:34.438Z,14.20
2022-11-26T16:08:23.669Z,18.23
2022-11-26T16:11:07.708Z,13.88
2022-11-26T16:13:36.322Z,15.98
2022-11-26T16:18:44.293Z,17.60
2022-11-26T16:21:14.039Z,11.82
2022-11-26T16:23:41.614Z,12.15
2022-11-26T16:26:16.278Z,10.70
2022-11-26T16:28:45.196Z,10.63
2022-11-26T16:31:13.506Z,7.47
2022-11-26T16:33:40.796Z,10.95
2022-11-26T16:36:19.298Z,15.20
2022-11-26T16:38:47.203Z,12.20
2022-11-26T16:41:15.768Z,12.80
2022-11-26T16:46:23.517Z,15.18
2022-11-26T16:48:50.872Z,14.80
2022-11-26T16:51:18.689Z,14.63
2022-11-26T16:53:45.860Z,16.58
2022-11-26T16:56:26.915Z,13.27
2022-11-26T16:58:54.874Z,12.13
2022-11-26T17:01:21.970Z,22.88
2022-11-26T17:03:49.173Z,21.58
2022-11-26T17:06:38.582Z,11.80
2022-11-26T17:09:05.582Z,16.67
2022-11-26T17:11:32.532Z,12.45
2022-11-26T17:13:59.808Z,12.75
2022-11-26T17:16:26.861Z,10.30
2022-11-26T17:18:53.952Z,8.18
2022-11-26T17:21:21.022Z,15.18
2022-11-26T17:23:47.953Z,11.48
2022-11-26T17:26:21.240Z,12.52
2022-11-26T17:28:49.523Z,9.77
2022-11-26T17:31:17.388Z,10.43
2022-11-26T17:33:44.497Z,21.98
2022-11-26T17:36:18.013Z,14.20
2022-11-26T17:38:46.065Z,19.65
2022-11-26T17:41:14.167Z,12.02
2022-11-26T17:43:41.684Z,9.15
2022-11-26T17:46:17.594Z,17.45
2022-11-26T17:48:44.657Z,10.18
2022-11-26T17:51:13.539Z,10.10
2022-11-26T17:53:41.609Z,12.00
2022-11-26T17:56:24.705Z,11.43
2022-11-26T17:58:51.836Z,8.45
2022-11-26T18:01:19.437Z,10.25
2022-11-26T18:03:47.488Z,9.50
2022-11-26T18:06:16.936Z,17.55
2022-11-26T18:08:44.794Z,13.10
2022-11-26T18:11:16.315Z,14.35
2022-11-26T18:13:43.510Z,11.07
2022-11-26T18:16:10.601Z,10.73
2022-11-26T18:18:37.615Z,10.18
2022-11-26T18:21:05.435Z,7.68
2022-11-26T18:23:32.843Z,12.73
2022-11-26T18:25:59.951Z,15.55
2022-11-26T18:28:27.113Z,12.07
2022-11-26T18:30:58.333Z,11.95
2022-11-26T18:33:25.507Z,18.55
2022-11-26T18:35:52.873Z,10.07
2022-11-26T18:38:20.018Z,7.45
2022-11-26T18:40:47.125Z,9.15
2022-11-26T18:43:14.243Z,10.35
2022-11-26T18:45:44.339Z,10.52
2022-11-26T18:48:11.475Z,8.75
2022-11-26T18:50:38.498Z,11.15
2022-11-26T18:53:05.595Z,7.70
2022-11-26T18:55:32.703Z,8.23
2022-11-26T18:58:02.870Z,10.95
2022-11-26T19:00:32.444Z,10.52
2022-11-26T19:03:01.623Z,9.35
2022-11-26T19:05:28.619Z,7.70
2022-11-26T19:07:55.589Z,11.52
2022-11-26T19:10:22.608Z,13.95
2022-11-26T19:12:49.668Z,7.32
2022-11-26T19:15:16.785Z,6.65
2022-11-26T19:17:43.767Z,9.40
2022-11-26T19:20:10.904Z,7.55
2022-11-26T19:22:37.961Z,8.98
2022-11-26T19:25:05.277Z,13.57
2022-11-26T19:27:32.452Z,9.43
2022-11-26T19:29:59.462Z,12.45
2022-11-26T19:32:26.881Z,11.75
2022-11-26T19:34:54.426Z,13.93
2022-11-26T19:37:21.505Z,18.42
2022-11-26T19:39:48.482Z,15.32
2022-11-26T19:42:15.751Z,11.70
2022-11-26T19:44:42.791Z,15.00
2022-11-26T19:47:10.098Z,11.75
2022-11-26T19:49:37.401Z,9.55
2022-11-26T19:52:04.912Z,9.77
2022-11-26T19:54:31.903Z,13.30
2022-11-26T19:56:58.933Z,13.55
2022-11-26T19:59:25.983Z,12.93
2022-11-26T20:01:55.699Z,11.88
2022-11-26T20:04:23.889Z,12.82
2022-11-26T20:06:50.856Z,13.25
2022-11-26T20:09:17.821Z,15.38
2022-11-26T20:11:45.825Z,16.67
2022-11-26T20:14:14.247Z,14.63
2022-11-26T20:16:43.327Z,9.80
2022-11-26T20:19:11.206Z,11.85
2022-11-26T20:21:38.963Z,12.02
2022-11-26T20:24:14.365Z,11.93
2022-11-26T20:26:42.922Z,13.20
2022-11-26T20:29:14.545Z,12.02
2022-11-26T20:31:47.712Z,10.23
2022-11-26T20:34:19.346Z,12.75
2022-11-26T20:36:46.606Z,10.95
2022-11-26T20:39:16.263Z,15.00
2022-11-26T20:41:43.875Z,10.93
2022-11-26T20:44:12.672Z,18.13
2022-11-26T20:46:40.319Z,12.88
2022-11-26T20:49:07.890Z,13.33
2022-11-26T20:51:34.917Z,13.30
2022-11-26T20:54:02.356Z,12.13
2022-11-26T20:56:29.567Z,9.02
2022-11-26T20:58:56.544Z,15.20
2022-11-26T21:01:28.590Z,9.30
2022-11-26T21:03:56.507Z,19.75
2022-11-26T21:06:29.757Z,12.23
2022-11-26T21:09:02.347Z,9.68
2022-11-26T21:11:30.311Z,13.55
2022-11-26T21:13:59.045Z,10.30
2022-11-26T21:16:26.363Z,11.85
2022-11-26T21:18:54.822Z,9.23
2022-11-26T21:21:22.921Z,6.47
2022-11-26T21:23:50.678Z,4.70
2022-11-26T21:26:19.908Z,11.30
2022-11-26T21:28:55.279Z,9.07
2022-11-26T21:31:23.368Z,14.35
2022-11-26T21:34:01.757Z,10.65
2022-11-26T21:36:30.864Z,9.48
2022-11-26T21:38:58.103Z,12.18
2022-11-26T21:41:25.686Z,11.57
2022-11-26T21:43:53.100Z,10.63
2022-11-26T21:46:23.503Z,10.70
2022-11-26T21:48:56.212Z,13.07
2022-11-26T21:51:27.024Z,9.52
2022-11-26T21:53:55.300Z,10.63
2022-11-26T21:56:27.686Z,8.90
2022-11-26T21:58:57.452Z,12.95
2022-11-26T22:01:30.268Z,11.10
2022-11-26T22:04:00.367Z,10.18
2022-11-26T22:06:27.975Z,9.25
2022-11-26T22:08:55.789Z,12.18
2022-11-26T22:11:25.958Z,7.40
2022-11-26T22:13:53.324Z,8.90
2022-11-26T22:16:24.124Z,5.40
2022-11-26T22:18:52.548Z,8.20
2022-11-26T22:21:32.547Z,6.13
2022-11-26T22:24:01.327Z,11.57
2022-11-26T22:26:29.735Z,17.08
2022-11-26T22:28:57.041Z,11.25
2022-11-26T22:31:27.072Z,9.20
2022-11-26T22:34:06.032Z,7.95
2022-11-26T22:36:33.463Z,9.35
2022-11-26T22:39:02.349Z,9.25
2022-11-26T22:41:29.350Z,6.28
2022-11-26T22:43:59.178Z,9.52
2022-11-26T22:46:26.570Z,7.53
2022-11-26T22:48:59.160Z,7.72
2022-11-26T22:51:28.009Z,5.35
2022-11-26T22:53:59.664Z,4.68
2022-11-26T22:56:27.879Z,4.05
2022-11-26T22:58:55.312Z,3.95
2022-11-26T23:01:31.009Z,5.10
2022-11-26T23:03:59.646Z,5.93
2022-11-26T23:06:28.938Z,4.38
2022-11-26T23:08:57.478Z,2.70
2022-11-26T23:13:56.238Z,3.05
2022-11-26T23:16:26.169Z,3.13
2022-11-26T23:18:57.444Z,3.67
2022-11-26T23:21:27.322Z,2.13
2022-11-26T23:23:54.680Z,2.22
2022-11-26T23:26:28.270Z,2.33
2022-11-26T23:28:56.799Z,1.95
2022-11-26T23:33:53.322Z,2.78
2022-11-26T23:36:21.284Z,2.20
2022-11-26T23:38:48.554Z,1.65
2022-11-26T23:41:15.809Z,1.05
2022-11-26T23:43:42.913Z,2.15
2022-11-26T23:46:25.103Z,1.00
2022-11-26T23:48:52.705Z,1.17
2022-11-26T23:51:25.314Z,0.40
2022-11-26T23:53:52.954Z,0.70
2022-11-26T23:56:23.757Z,1.02
2022-11-26T23:58:52.616Z,3.22
